createdAt,value
2022-08-26T00:01:46.744Z,89.25
2022-08-26T00:04:14.074Z,89.42
2022-08-26T00:06:42.752Z,89.47
2022-08-26T00:09:16.231Z,89.45
2022-08-26T00:11:43.807Z,89.46
2022-08-26T00:14:10.594Z,89.59
2022-08-26T00:16:37.674Z,89.53
2022-08-26T00:19:07.986Z,89.70
2022-08-26T00:21:35.342Z,89.67
2022-08-26T00:24:04.847Z,89.89
2022-08-26T00:26:34.870Z,90.01
2022-08-26T00:29:02.189Z,89.97
2022-08-26T00:31:31.254Z,89.91
2022-08-26T00:33:58.936Z,90.03
2022-08-26T00:36:29.737Z,89.92
2022-08-26T00:38:56.827Z,90.13
2022-08-26T00:41:24.016Z,89.99
2022-08-26T00:43:52.741Z,89.76
2022-08-26T00:46:23.632Z,89.98
2022-08-26T00:48:54.064Z,89.85
2022-08-26T00:51:24.725Z,89.55
2022-08-26T00:54:01.414Z,89.40
2022-08-26T00:56:36.483Z,89.74
2022-08-26T00:59:08.590Z,89.36
2022-08-26T01:01:38.702Z,89.46
2022-08-26T01:04:06.086Z,89.17
2022-08-26T01:06:32.992Z,88.61
2022-08-26T01:09:00.302Z,88.83
2022-08-26T01:11:27.799Z,88.69
2022-08-26T01:13:56.222Z,88.93
2022-08-26T01:16:27.330Z,89.31
2022-08-26T01:18:59.427Z,89.15
2022-08-26T01:21:29.526Z,89.28
2022-08-26T01:23:59.529Z,89.21
2022-08-26T01:26:30.208Z,89.19
2022-08-26T01:29:00.282Z,89.40
2022-08-26T01:31:31.089Z,89.26
2022-08-26T01:34:03.355Z,89.31
2022-08-26T01:36:31.264Z,89.55
2022-08-26T01:38:59.631Z,89.46
2022-08-26T01:41:29.253Z,89.61
2022-08-26T01:43:57.914Z,89.65
2022-08-26T01:46:27.070Z,89.54
2022-08-26T01:48:55.369Z,89.21
2022-08-26T01:51:25.233Z,89.01
2022-08-26T01:53:52.464Z,89.06
2022-08-26T01:56:23.205Z,88.78
2022-08-26T01:58:54.180Z,89.01
2022-08-26T02:01:21.734Z,89.13
2022-08-26T02:03:54.635Z,89.10
2022-08-26T02:06:22.196Z,89.40
2022-08-26T02:08:52.918Z,89.29
2022-08-26T02:11:21.217Z,89.08
2022-08-26T02:13:52.314Z,88.97
2022-08-26T02:16:24.405Z,89.04
2022-08-26T02:18:52.801Z,88.93
2022-08-26T02:21:20.462Z,89.07
2022-08-26T02:23:47.698Z,89.33
2022-08-26T02:26:17.995Z,89.53
2022-08-26T02:28:53.131Z,89.85
2022-08-26T02:31:20.061Z,89.20
2022-08-26T02:33:47.711Z,89.44
2022-08-26T02:36:19.898Z,89.73
2022-08-26T02:38:47.234Z,89.60
2022-08-26T02:41:14.701Z,89.84
2022-08-26T02:43:41.478Z,89.78
2022-08-26T02:46:09.694Z,90.12
2022-08-26T02:48:36.901Z,89.85
2022-08-26T02:51:04.326Z,90.11
2022-08-26T02:53:31.989Z,89.82
2022-08-26T02:56:02.762Z,89.84
2022-08-26T02:58:29.947Z,89.93
2022-08-26T03:00:56.759Z,90.03
2022-08-26T03:03:25.477Z,90.33
2022-08-26T03:05:52.468Z,90.64
2022-08-26T03:08:19.599Z,90.82
2022-08-26T03:10:48.050Z,91.21
2022-08-26T03:13:16.442Z,91.04
2022-08-26T03:15:44.163Z,90.95
2022-08-26T03:18:13.439Z,90.90
2022-08-26T03:20:42.036Z,91.04
2022-08-26T03:23:10.881Z,91.03
2022-08-26T03:25:37.772Z,91.35
2022-08-26T03:28:05.326Z,91.02
2022-08-26T03:30:45.519Z,90.82
2022-08-26T03:33:13.242Z,90.71
2022-08-26T03:35:44.078Z,91.05
2022-08-26T03:38:11.281Z,91.01
2022-08-26T03:40:39.064Z,90.72
2022-08-26T03:43:09.512Z,90.66
2022-08-26T03:45:37.219Z,90.34
2022-08-26T03:48:03.970Z,90.69
2022-08-26T03:50:34.218Z,89.98
2022-08-26T03:53:04.659Z,89.95
2022-08-26T03:55:34.329Z,89.81
2022-08-26T03:58:02.173Z,89.93
2022-08-26T04:00:29.990Z,90.07
2022-08-26T04:02:57.179Z,89.85
2022-08-26T04:05:25.390Z,90.18
2022-08-26T04:07:52.435Z,89.69
2022-08-26T04:10:29.291Z,89.53
2022-08-26T04:13:06.404Z,89.18
2022-08-26T04:15:33.440Z,88.39
2022-08-26T04:18:00.707Z,88.25
2022-08-26T04:20:28.731Z,88.26
2022-08-26T04:22:55.644Z,88.03
2022-08-26T04:25:24.171Z,87.81
2022-08-26T04:27:51.437Z,87.82
2022-08-26T04:30:20.055Z,88.26
2022-08-26T04:32:48.823Z,88.02
2022-08-26T04:35:15.676Z,87.59
2022-08-26T04:37:44.096Z,87.73
2022-08-26T04:40:11.569Z,87.46
2022-08-26T04:42:40.057Z,87.71
2022-08-26T04:45:10.374Z,87.70
2022-08-26T04:47:38.531Z,87.47
2022-08-26T04:50:07.471Z,87.30
2022-08-26T04:52:34.398Z,87.51
2022-08-26T04:55:01.188Z,87.47
2022-08-26T04:57:28.365Z,87.35
2022-08-26T04:59:56.863Z,87.32
2022-08-26T05:02:24.267Z,87.49
2022-08-26T05:04:52.459Z,87.28
2022-08-26T05:07:19.276Z,87.03
2022-08-26T05:09:46.144Z,86.75
2022-08-26T05:12:12.922Z,86.81
2022-08-26T05:14:41.497Z,86.19
2022-08-26T05:17:09.742Z,85.95
2022-08-26T05:19:42.861Z,86.35
2022-08-26T05:22:10.167Z,86.45
2022-08-26T05:24:40.061Z,86.08
2022-08-26T05:27:11.453Z,86.22
2022-08-26T05:29:39.086Z,85.90
2022-08-26T05:32:06.375Z,85.93
2022-08-26T05:34:35.036Z,85.96
2022-08-26T05:37:01.880Z,85.73
2022-08-26T05:39:29.232Z,85.78
2022-08-26T05:41:56.248Z,85.70
2022-08-26T05:44:23.068Z,85.55
2022-08-26T05:46:51.739Z,85.64
2022-08-26T05:49:18.904Z,85.36
2022-08-26T05:51:48.094Z,85.40
2022-08-26T05:54:22.102Z,85.17
2022-08-26T05:56:50.002Z,85.45
2022-08-26T05:59:16.847Z,84.86
2022-08-26T06:01:50.864Z,84.79
2022-08-26T06:04:18.117Z,84.80
2022-08-26T06:06:48.460Z,84.75
2022-08-26T06:09:17.458Z,85.06
2022-08-26T06:11:45.161Z,85.01
2022-08-26T06:14:12.277Z,84.90
2022-08-26T06:16:41.590Z,85.06
2022-08-26T06:19:10.571Z,85.02
2022-08-26T06:21:40.204Z,84.98
2022-08-26T06:24:29.200Z,84.97
2022-08-26T06:26:59.084Z,84.87
2022-08-26T06:29:26.609Z,84.41
2022-08-26T06:31:53.934Z,84.20
2022-08-26T06:34:20.902Z,84.17
2022-08-26T06:36:49.447Z,84.08
2022-08-26T06:39:21.824Z,83.97
2022-08-26T06:41:48.962Z,83.65
2022-08-26T06:44:18.269Z,83.48
2022-08-26T06:46:46.160Z,83.05
2022-08-26T06:49:17.291Z,82.87
2022-08-26T06:51:44.360Z,82.95
2022-08-26T06:54:11.509Z,83.05
2022-08-26T06:56:41.801Z,82.90
2022-08-26T06:59:09.972Z,82.81
2022-08-26T07:01:43.067Z,82.92
2022-08-26T07:04:12.044Z,82.39
2022-08-26T07:06:40.693Z,82.21
2022-08-26T07:09:10.159Z,81.92
2022-08-26T07:11:39.735Z,81.65
2022-08-26T07:14:07.281Z,81.49
2022-08-26T07:16:35.850Z,81.60
2022-08-26T07:19:10.878Z,81.92
2022-08-26T07:21:41.659Z,82.54
2022-08-26T07:24:11.142Z,82.39
2022-08-26T07:26:42.833Z,82.74
2022-08-26T07:29:11.587Z,82.34
2022-08-26T07:31:39.416Z,82.57
2022-08-26T07:34:10.634Z,81.99
2022-08-26T07:36:37.650Z,81.88
2022-08-26T07:39:05.151Z,81.39
2022-08-26T07:41:32.008Z,81.31
2022-08-26T07:44:00.206Z,81.38
2022-08-26T07:46:27.473Z,80.84
2022-08-26T07:48:58.111Z,80.85
2022-08-26T07:51:26.186Z,81.00
2022-08-26T07:53:54.383Z,80.71
2022-08-26T07:56:21.799Z,80.35
2022-08-26T07:58:51.592Z,79.79
2022-08-26T08:01:21.149Z,79.30
2022-08-26T08:03:51.536Z,79.31
2022-08-26T08:06:19.402Z,79.71
2022-08-26T08:08:46.784Z,79.90
2022-08-26T08:11:14.307Z,79.60
2022-08-26T08:13:41.087Z,80.32
2022-08-26T08:16:12.550Z,80.38
2022-08-26T08:18:41.542Z,79.90
2022-08-26T08:21:21.449Z,79.49
2022-08-26T08:23:49.097Z,78.62
2022-08-26T08:26:16.885Z,78.26
2022-08-26T08:28:43.677Z,77.40
2022-08-26T08:31:21.616Z,76.22
2022-08-26T08:34:01.731Z,76.71
2022-08-26T08:36:32.182Z,76.58
2022-08-26T08:39:03.013Z,76.13
2022-08-26T08:41:45.022Z,75.60
2022-08-26T08:44:15.986Z,75.81
2022-08-26T08:46:44.488Z,76.42
2022-08-26T08:49:14.086Z,75.03
2022-08-26T08:51:48.335Z,75.33
2022-08-26T08:54:15.603Z,74.67
2022-08-26T08:56:47.722Z,74.70
2022-08-26T08:59:20.497Z,74.87
2022-08-26T09:01:58.705Z,74.59
2022-08-26T09:05:04.607Z,73.98
2022-08-26T09:07:37.890Z,73.83
2022-08-26T09:10:24.672Z,72.69
2022-08-26T09:12:52.293Z,73.56
2022-08-26T09:15:25.473Z,72.51
2022-08-26T09:18:01.471Z,73.40
2022-08-26T09:20:43.761Z,74.34
2022-08-26T09:23:14.539Z,75.08
2022-08-26T09:25:48.063Z,75.57
2022-08-26T09:28:18.708Z,75.91
2022-08-26T09:30:47.942Z,74.78
2022-08-26T09:33:17.470Z,74.48
2022-08-26T09:35:48.612Z,73.62
2022-08-26T09:38:26.672Z,72.90
2022-08-26T09:40:59.331Z,73.79
2022-08-26T09:43:28.605Z,74.23
2022-08-26T09:46:12.308Z,75.26
2022-08-26T09:48:41.037Z,73.69
2022-08-26T09:51:28.175Z,72.73
2022-08-26T09:53:57.770Z,72.54
2022-08-26T09:56:27.658Z,73.72
2022-08-26T09:58:56.251Z,74.55
2022-08-26T10:01:30.669Z,74.09
2022-08-26T10:04:06.481Z,74.78
2022-08-26T10:06:41.178Z,74.29
2022-08-26T10:09:12.364Z,74.49
2022-08-26T10:11:44.960Z,75.09
2022-08-26T10:14:23.328Z,76.38
2022-08-26T10:16:59.645Z,76.81
2022-08-26T10:19:29.102Z,76.47
2022-08-26T10:22:14.069Z,76.20
2022-08-26T10:24:48.998Z,75.72
2022-08-26T10:27:25.402Z,73.79
2022-08-26T10:30:02.057Z,72.77
2022-08-26T10:32:36.012Z,72.06
2022-08-26T10:35:11.294Z,72.34
2022-08-26T10:37:41.769Z,74.00
2022-08-26T10:40:14.973Z,74.33
2022-08-26T10:42:46.312Z,75.12
2022-08-26T10:45:16.702Z,73.76
2022-08-26T10:47:48.923Z,72.78
2022-08-26T10:50:18.055Z,71.80
2022-08-26T10:52:57.620Z,71.04
2022-08-26T10:55:35.638Z,70.34
2022-08-26T10:58:26.618Z,66.71
2022-08-26T11:01:22.610Z,64.57
2022-08-26T11:03:58.942Z,62.62
2022-08-26T11:06:28.874Z,62.00
2022-08-26T11:08:57.228Z,63.44
2022-08-26T11:11:48.178Z,64.89
2022-08-26T11:14:56.212Z,65.63
2022-08-26T11:17:57.175Z,66.17
2022-08-26T11:20:36.890Z,66.85
2022-08-26T11:23:37.970Z,68.80
2022-08-26T11:26:32.748Z,68.61
2022-08-26T11:29:04.677Z,68.10
2022-08-26T11:31:53.522Z,67.93
2022-08-26T11:35:05.130Z,67.08
2022-08-26T11:37:36.414Z,66.61
2022-08-26T11:40:09.851Z,65.90
2022-08-26T11:42:41.693Z,66.20
2022-08-26T11:45:22.564Z,66.03
2022-08-26T11:47:50.564Z,66.87
2022-08-26T11:50:20.268Z,65.03
2022-08-26T11:52:55.795Z,66.40
2022-08-26T11:55:24.101Z,67.10
2022-08-26T11:57:54.586Z,67.24
2022-08-26T12:00:27.516Z,68.48
2022-08-26T12:03:05.732Z,68.33
2022-08-26T12:05:43.087Z,68.25
2022-08-26T12:08:13.885Z,68.38
2022-08-26T12:10:40.748Z,68.80
2022-08-26T12:13:08.971Z,68.79
2022-08-26T12:15:37.321Z,69.38
2022-08-26T12:18:17.906Z,69.55
2022-08-26T12:20:51.427Z,69.93
2022-08-26T12:23:26.988Z,69.72
2022-08-26T12:26:04.278Z,70.04
2022-08-26T12:28:31.570Z,69.63
2022-08-26T12:31:02.252Z,70.47
2022-08-26T12:33:30.381Z,69.34
2022-08-26T12:35:59.533Z,70.43
2022-08-26T12:38:28.222Z,69.53
2022-08-26T12:40:57.443Z,69.20
2022-08-26T12:43:42.000Z,69.82
2022-08-26T12:46:13.115Z,70.77
2022-08-26T12:48:44.331Z,71.41
2022-08-26T12:51:22.245Z,72.11
2022-08-26T12:53:49.116Z,71.72
2022-08-26T12:56:25.180Z,71.99
2022-08-26T12:59:08.826Z,71.84
2022-08-26T13:01:43.443Z,71.34
2022-08-26T13:04:33.900Z,71.67
2022-08-26T13:07:15.531Z,71.73
2022-08-26T13:09:42.477Z,71.88
2022-08-26T13:12:11.739Z,71.37
2022-08-26T13:14:38.682Z,70.70
2022-08-26T13:17:07.096Z,70.41
2022-08-26T13:19:33.947Z,71.19
2022-08-26T13:22:01.333Z,70.39
2022-08-26T13:24:33.780Z,70.40
2022-08-26T13:27:01.780Z,70.08
2022-08-26T13:29:28.776Z,69.02
2022-08-26T13:31:55.955Z,69.23
2022-08-26T13:34:26.893Z,69.60
2022-08-26T13:36:55.371Z,69.21
2022-08-26T13:39:22.968Z,68.19
2022-08-26T13:41:50.145Z,66.87
2022-08-26T13:44:17.550Z,67.38
2022-08-26T13:49:12.860Z,65.91
2022-08-26T13:51:41.935Z,64.45
2022-08-26T13:54:09.263Z,64.06
2022-08-26T13:56:36.413Z,63.86
2022-08-26T13:59:04.751Z,63.64
2022-08-26T14:01:32.543Z,62.84
2022-08-26T14:03:59.681Z,62.84
2022-08-26T14:06:27.174Z,62.61
2022-08-26T14:08:55.540Z,62.71
2022-08-26T14:11:25.107Z,63.12
2022-08-26T14:13:52.932Z,62.51
2022-08-26T14:16:24.465Z,62.46
2022-08-26T14:18:52.487Z,62.08
2022-08-26T14:21:20.199Z,61.59
2022-08-26T14:23:47.223Z,59.46
2022-08-26T14:26:28.549Z,60.07
2022-08-26T14:28:57.156Z,59.47
2022-08-26T14:31:24.367Z,59.37
2022-08-26T14:33:51.320Z,60.75
2022-08-26T14:36:32.312Z,60.55
2022-08-26T14:39:02.413Z,59.26
2022-08-26T14:41:32.628Z,58.07
2022-08-26T14:44:02.098Z,57.60
2022-08-26T14:46:31.623Z,58.28
2022-08-26T14:49:02.060Z,58.87
2022-08-26T14:51:31.417Z,59.95
2022-08-26T14:54:13.300Z,57.88
2022-08-26T14:56:45.002Z,58.12
2022-08-26T14:59:12.400Z,59.29
2022-08-26T15:01:39.536Z,61.39
2022-08-26T15:04:06.665Z,63.78
2022-08-26T15:06:34.684Z,64.64
2022-08-26T15:09:02.209Z,62.79
2022-08-26T15:11:29.504Z,62.63
2022-08-26T15:13:57.810Z,62.41
2022-08-26T15:16:26.961Z,61.86
2022-08-26T15:18:53.948Z,61.55
2022-08-26T15:21:21.549Z,59.25
2022-08-26T15:23:49.843Z,56.70
2022-08-26T15:26:17.427Z,57.22
2022-08-26T15:28:44.859Z,56.38
2022-08-26T15:31:13.452Z,58.63
2022-08-26T15:33:40.608Z,59.26
2022-08-26T15:36:09.236Z,59.27
2022-08-26T15:38:39.559Z,59.28
2022-08-26T15:41:08.790Z,60.50
2022-08-26T15:43:36.551Z,60.74
2022-08-26T15:46:04.006Z,61.14
2022-08-26T15:48:32.321Z,63.32
2022-08-26T15:51:01.103Z,62.65
2022-08-26T15:53:30.311Z,63.00
2022-08-26T15:55:57.492Z,61.02
2022-08-26T15:58:26.453Z,61.21
2022-08-26T16:00:55.232Z,60.08
2022-08-26T16:03:22.732Z,60.26
2022-08-26T16:05:51.177Z,60.94
2022-08-26T16:08:18.355Z,61.58
2022-08-26T16:10:50.353Z,60.84
2022-08-26T16:13:19.825Z,61.29
2022-08-26T16:15:47.662Z,61.48
2022-08-26T16:18:15.844Z,60.32
2022-08-26T16:20:55.368Z,59.04
2022-08-26T16:23:37.382Z,58.13
2022-08-26T16:26:08.514Z,58.54
2022-08-26T16:28:38.688Z,57.44
2022-08-26T16:31:06.443Z,56.14
2022-08-26T16:33:33.430Z,56.66
2022-08-26T16:36:00.305Z,57.92
2022-08-26T16:38:27.267Z,57.43
2022-08-26T16:40:55.822Z,57.75
2022-08-26T16:43:22.680Z,58.03
2022-08-26T16:45:49.616Z,59.61
2022-08-26T16:48:16.567Z,59.71
2022-08-26T16:50:43.810Z,59.06
2022-08-26T16:55:44.884Z,60.31
2022-08-26T16:58:13.332Z,62.01
2022-08-26T17:00:40.633Z,63.80
2022-08-26T17:03:07.449Z,63.98
2022-08-26T17:05:34.873Z,65.69
2022-08-26T17:08:02.834Z,65.85
2022-08-26T17:10:30.272Z,66.34
2022-08-26T17:12:57.597Z,64.78
2022-08-26T17:15:26.334Z,63.60
2022-08-26T17:17:54.284Z,63.38
2022-08-26T17:20:22.681Z,63.15
2022-08-26T17:22:51.616Z,63.22
2022-08-26T17:25:21.862Z,65.14
2022-08-26T17:27:49.041Z,65.75
2022-08-26T17:30:17.251Z,66.05
2022-08-26T17:32:46.202Z,66.20
2022-08-26T17:35:14.827Z,67.12
2022-08-26T17:37:42.366Z,67.72
2022-08-26T17:40:12.561Z,67.44
2022-08-26T17:42:40.490Z,67.80
2022-08-26T17:45:08.689Z,68.01
2022-08-26T17:47:35.746Z,68.10
2022-08-26T17:50:06.037Z,68.73
2022-08-26T17:52:32.986Z,67.64
2022-08-26T17:54:59.787Z,67.23
2022-08-26T17:57:27.178Z,67.69
2022-08-26T17:59:54.401Z,67.50
2022-08-26T18:02:22.146Z,68.21
2022-08-26T18:04:49.005Z,68.67
2022-08-26T18:07:17.583Z,69.04
2022-08-26T18:09:44.530Z,68.95
2022-08-26T18:12:12.159Z,69.61
2022-08-26T18:14:39.014Z,70.06
2022-08-26T18:17:05.959Z,70.27
2022-08-26T18:19:32.824Z,70.66
2022-08-26T18:21:59.680Z,70.75
2022-08-26T18:24:30.452Z,70.72
2022-08-26T18:26:57.961Z,71.05
2022-08-26T18:29:25.630Z,71.60
2022-08-26T18:31:52.584Z,71.42
2022-08-26T18:34:19.956Z,71.45
2022-08-26T18:36:47.569Z,71.43
2022-08-26T18:39:15.860Z,72.07
2022-08-26T18:41:46.268Z,72.68
2022-08-26T18:44:15.223Z,72.66
2022-08-26T18:46:43.638Z,73.27
2022-08-26T18:49:11.027Z,73.59
2022-08-26T18:51:38.206Z,74.01
2022-08-26T18:54:07.444Z,74.80
2022-08-26T18:56:35.259Z,75.37
2022-08-26T18:59:04.914Z,75.87
2022-08-26T19:01:32.883Z,76.05
2022-08-26T19:04:01.661Z,76.47
2022-08-26T19:06:31.722Z,76.16
2022-08-26T19:08:59.002Z,76.33
2022-08-26T19:11:31.665Z,76.29
2022-08-26T19:13:59.755Z,76.99
2022-08-26T19:16:28.764Z,76.89
2022-08-26T19:18:56.334Z,77.06
2022-08-26T19:21:23.166Z,76.88
2022-08-26T19:23:50.733Z,76.96
2022-08-26T19:26:19.400Z,76.34
2022-08-26T19:28:47.160Z,76.37
2022-08-26T19:31:14.093Z,76.03
2022-08-26T19:33:43.881Z,76.23
2022-08-26T19:36:15.044Z,76.36
2022-08-26T19:38:42.902Z,77.00
2022-08-26T19:41:11.551Z,77.61
2022-08-26T19:43:38.330Z,78.80
2022-08-26T19:46:11.873Z,78.42
2022-08-26T19:48:39.090Z,78.67
2022-08-26T19:51:07.534Z,78.72
2022-08-26T19:53:34.443Z,78.71
2022-08-26T19:56:01.188Z,78.71
2022-08-26T19:58:28.211Z,79.21
2022-08-26T20:00:55.161Z,79.29
2022-08-26T20:03:23.299Z,79.35
2022-08-26T20:05:50.325Z,79.18
2022-08-26T20:08:22.279Z,79.01
2022-08-26T20:10:50.446Z,78.56
2022-08-26T20:13:17.316Z,78.46
2022-08-26T20:15:44.419Z,78.19
2022-08-26T20:18:29.820Z,78.26
2022-08-26T20:21:16.121Z,78.38
2022-08-26T20:23:44.600Z,78.24
2022-08-26T20:26:11.633Z,78.77
2022-08-26T20:28:38.528Z,78.99
2022-08-26T20:31:05.724Z,79.67
2022-08-26T20:33:45.980Z,79.85
2022-08-26T20:36:14.375Z,80.10
2022-08-26T20:38:41.429Z,80.10
2022-08-26T20:41:10.672Z,80.08
2022-08-26T20:43:37.605Z,79.99
2022-08-26T20:46:08.350Z,78.84
2022-08-26T20:48:44.798Z,78.71
2022-08-26T20:51:12.429Z,77.95
2022-08-26T20:53:39.706Z,77.86
2022-08-26T20:56:10.315Z,77.64
2022-08-26T20:58:38.681Z,76.95
2022-08-26T21:01:08.096Z,77.57
2022-08-26T21:03:36.022Z,77.17
2022-08-26T21:06:03.925Z,76.86
2022-08-26T21:08:33.328Z,76.69
2022-08-26T21:11:00.787Z,76.58
2022-08-26T21:13:42.876Z,76.33
2022-08-26T21:16:15.573Z,76.14
2022-08-26T21:18:43.241Z,76.31
2022-08-26T21:21:10.383Z,76.27
2022-08-26T21:23:37.745Z,76.61
2022-08-26T21:26:06.465Z,76.83
2022-08-26T21:28:37.189Z,76.83
2022-08-26T21:31:04.268Z,77.12
2022-08-26T21:33:31.291Z,76.86
2022-08-26T21:35:58.260Z,76.71
2022-08-26T21:38:25.600Z,76.22
2022-08-26T21:40:59.868Z,75.87
2022-08-26T21:43:35.052Z,76.13
2022-08-26T21:46:14.673Z,75.95
2022-08-26T21:48:42.012Z,76.17
2022-08-26T21:51:09.802Z,76.12
2022-08-26T21:53:37.212Z,76.35
2022-08-26T21:56:05.640Z,76.83
2022-08-26T21:58:32.685Z,77.49
2022-08-26T22:01:02.758Z,77.36
2022-08-26T22:03:31.285Z,78.33
2022-08-26T22:06:04.931Z,78.95
2022-08-26T22:08:33.371Z,78.85
2022-08-26T22:11:02.059Z,79.30
2022-08-26T22:13:31.887Z,79.66
2022-08-26T22:15:59.470Z,79.90
2022-08-26T22:18:28.465Z,79.94
2022-08-26T22:20:59.947Z,79.80
2022-08-26T22:23:27.381Z,80.08
2022-08-26T22:25:54.987Z,79.51
2022-08-26T22:28:22.588Z,79.74
2022-08-26T22:30:49.612Z,79.87
2022-08-26T22:33:17.712Z,79.88
2022-08-26T22:35:47.437Z,80.41
2022-08-26T22:38:16.258Z,80.62
2022-08-26T22:40:44.571Z,81.38
2022-08-26T22:43:12.265Z,81.69
2022-08-26T22:45:43.348Z,82.72
2022-08-26T22:48:11.821Z,82.91
2022-08-26T22:50:38.973Z,83.47
2022-08-26T22:53:05.919Z,83.86
2022-08-26T22:55:34.151Z,85.36
2022-08-26T22:58:01.264Z,85.26
2022-08-26T23:00:31.979Z,85.61
2022-08-26T23:03:00.384Z,86.74
2022-08-26T23:05:27.502Z,86.91
2022-08-26T23:07:56.355Z,87.57
2022-08-26T23:10:24.302Z,87.88
2022-08-26T23:12:52.879Z,88.05
2022-08-26T23:15:21.778Z,88.55
2022-08-26T23:17:50.108Z,89.02
2022-08-26T23:20:26.703Z,89.28
2022-08-26T23:22:54.105Z,89.51
2022-08-26T23:25:21.266Z,89.64
2022-08-26T23:27:48.849Z,89.60
2022-08-26T23:30:20.298Z,90.04
2022-08-26T23:32:48.085Z,89.43
2022-08-26T23:35:15.839Z,89.58
2022-08-26T23:37:46.137Z,89.49
2022-08-26T23:40:19.184Z,88.82
2022-08-26T23:42:46.091Z,88.73
2022-08-26T23:45:14.665Z,88.54
2022-08-26T23:47:43.130Z,88.68
2022-08-26T23:50:10.359Z,88.73
2022-08-26T23:52:55.732Z,88.64
2022-08-26T23:55:23.786Z,88.39
2022-08-26T23:57:50.741Z,88.93
